sensor_id;sensor_type;location;lat;lon;timestamp;temperature;humidity
8778;DHT22;4425;50.872;4.712;2023-02-10T00:01:07;4.40;99.90
8778;DHT22;4425;50.872;4.712;2023-02-10T00:03:35;4.30;99.90
8778;DHT22;4425;50.872;4.712;2023-02-10T00:06:06;4.20;99.90
8778;DHT22;4425;50.872;4.712;2023-02-10T00:08:34;4.20;99.90
8778;DHT22;4425;50.872;4.712;2023-02-10T00:11:04;4.10;99.90
8778;DHT22;4425;50.872;4.712;2023-02-10T00:13:32;4.00;99.90
8778;DHT22;4425;50.872;4.712;2023-02-10T00:16:00;3.90;99.90
8778;DHT22;4425;50.872;4.712;2023-02-10T00:18:28;3.80;99.90
8778;DHT22;4425;50.872;4.712;2023-02-10T00:20:55;3.80;99.90
8778;DHT22;4425;50.872;4.712;2023-02-10T00:23:26;3.70;99.90
8778;DHT22;4425;50.872;4.712;2023-02-10T00:25:54;3.70;99.90
8778;DHT22;4425;50.872;4.712;2023-02-10T00:28:21;3.60;99.90
8778;DHT22;4425;50.872;4.712;2023-02-10T00:30:48;3.60;99.90
8778;DHT22;4425;50.872;4.712;2023-02-10T00:33:15;3.60;99.90
8778;DHT22;4425;50.872;4.712;2023-02-10T00:35:43;3.50;99.90
8778;DHT22;4425;50.872;4.712;2023-02-10T00:38:11;3.50;99.90
8778;DHT22;4425;50.872;4.712;2023-02-10T00:40:39;3.50;99.90
8778;DHT22;4425;50.872;4.712;2023-02-10T00:43:07;3.70;99.90
8778;DHT22;4425;50.872;4.712;2023-02-10T00:45:34;3.60;99.90
8778;DHT22;4425;50.872;4.712;2023-02-10T00:48:01;3.60;99.90
8778;DHT22;4425;50.872;4.712;2023-02-10T00:50:28;3.70;99.90
8778;DHT22;4425;50.872;4.712;2023-02-10T00:52:55;3.80;99.90
8778;DHT22;4425;50.872;4.712;2023-02-10T00:55:23;3.80;99.90
8778;DHT22;4425;50.872;4.712;2023-02-10T00:57:51;3.90;99.90
8778;DHT22;4425;50.872;4.712;2023-02-10T01:00:19;3.90;99.90
8778;DHT22;4425;50.872;4.712;2023-02-10T01:02:47;3.90;99.90
8778;DHT22;4425;50.872;4.712;2023-02-10T01:05:14;3.90;99.90
8778;DHT22;4425;50.872;4.712;2023-02-10T01:07:41;4.00;99.90
8778;DHT22;4425;50.872;4.712;2023-02-10T01:10:08;3.90;99.90
8778;DHT22;4425;50.872;4.712;2023-02-10T01:12:35;4.00;99.90
8778;DHT22;4425;50.872;4.712;2023-02-10T01:15:04;4.00;99.90
8778;DHT22;4425;50.872;4.712;2023-02-10T01:17:31;4.00;99.90
8778;DHT22;4425;50.872;4.712;2023-02-10T01:19:58;4.00;99.90
8778;DHT22;4425;50.872;4.712;2023-02-10T01:22:25;3.90;99.90
8778;DHT22;4425;50.872;4.712;2023-02-10T01:24:52;4.00;99.90
8778;DHT22;4425;50.872;4.712;2023-02-10T01:27:20;4.00;99.90
8778;DHT22;4425;50.872;4.712;2023-02-10T01:29:47;4.00;99.90
8778;DHT22;4425;50.872;4.712;2023-02-10T01:32:16;4.00;99.90
8778;DHT22;4425;50.872;4.712;2023-02-10T01:34:43;4.00;99.90
8778;DHT22;4425;50.872;4.712;2023-02-10T01:37:10;4.00;99.90
8778;DHT22;4425;50.872;4.712;2023-02-10T01:39:38;4.00;99.90
8778;DHT22;4425;50.872;4.712;2023-02-10T01:42:05;4.00;99.90
8778;DHT22;4425;50.872;4.712;2023-02-10T01:47:42;3.90;99.90
8778;DHT22;4425;50.872;4.712;2023-02-10T01:50:11;4.00;99.90
8778;DHT22;4425;50.872;4.712;2023-02-10T01:52:38;3.90;99.90
8778;DHT22;4425;50.872;4.712;2023-02-10T01:55:09;3.90;99.90
8778;DHT22;4425;50.872;4.712;2023-02-10T01:57:40;3.80;99.90
8778;DHT22;4425;50.872;4.712;2023-02-10T02:00:09;3.80;99.90
8778;DHT22;4425;50.872;4.712;2023-02-10T02:02:37;3.70;99.90
8778;DHT22;4425;50.872;4.712;2023-02-10T02:05:27;3.70;99.90
8778;DHT22;4425;50.872;4.712;2023-02-10T02:07:57;3.80;99.90
8778;DHT22;4425;50.872;4.712;2023-02-10T02:10:36;3.50;99.90
8778;DHT22;4425;50.872;4.712;2023-02-10T02:13:12;3.50;99.90
8778;DHT22;4425;50.872;4.712;2023-02-10T02:15:47;3.50;99.90
8778;DHT22;4425;50.872;4.712;2023-02-10T02:18:23;3.40;99.90
8778;DHT22;4425;50.872;4.712;2023-02-10T02:24:24;3.30;99.90
8778;DHT22;4425;50.872;4.712;2023-02-10T02:27:05;3.30;99.90
8778;DHT22;4425;50.872;4.712;2023-02-10T02:30:02;3.30;99.90
8778;DHT22;4425;50.872;4.712;2023-02-10T02:32:39;3.20;99.90
8778;DHT22;4425;50.872;4.712;2023-02-10T02:35:14;3.20;99.90
8778;DHT22;4425;50.872;4.712;2023-02-10T02:37:43;3.20;99.90
8778;DHT22;4425;50.872;4.712;2023-02-10T02:40:12;3.30;99.90
8778;DHT22;4425;50.872;4.712;2023-02-10T02:42:39;3.30;99.90
8778;DHT22;4425;50.872;4.712;2023-02-10T02:45:09;3.30;99.90
8778;DHT22;4425;50.872;4.712;2023-02-10T02:47:47;3.30;99.90
8778;DHT22;4425;50.872;4.712;2023-02-10T02:50:23;3.20;99.90
8778;DHT22;4425;50.872;4.712;2023-02-10T02:53:02;3.20;99.90
8778;DHT22;4425;50.872;4.712;2023-02-10T02:55:35;3.10;99.90
8778;DHT22;4425;50.872;4.712;2023-02-10T02:58:12;3.00;99.90
8778;DHT22;4425;50.872;4.712;2023-02-10T03:00:41;2.90;99.90
8778;DHT22;4425;50.872;4.712;2023-02-10T03:03:15;2.70;99.90
8778;DHT22;4425;50.872;4.712;2023-02-10T03:05:44;2.70;99.90
8778;DHT22;4425;50.872;4.712;2023-02-10T03:08:11;2.60;99.90
8778;DHT22;4425;50.872;4.712;2023-02-10T03:10:38;2.50;99.90
8778;DHT22;4425;50.872;4.712;2023-02-10T03:13:05;2.60;99.90
8778;DHT22;4425;50.872;4.712;2023-02-10T03:15:32;2.60;99.90
8778;DHT22;4425;50.872;4.712;2023-02-10T03:17:59;2.50;99.90
8778;DHT22;4425;50.872;4.712;2023-02-10T03:20:28;2.50;99.90
8778;DHT22;4425;50.872;4.712;2023-02-10T03:22:55;2.50;99.90
8778;DHT22;4425;50.872;4.712;2023-02-10T03:25:22;2.40;99.90
8778;DHT22;4425;50.872;4.712;2023-02-10T03:27:49;2.30;99.90
8778;DHT22;4425;50.872;4.712;2023-02-10T03:30:16;2.30;99.90
8778;DHT22;4425;50.872;4.712;2023-02-10T03:32:43;2.40;99.90
8778;DHT22;4425;50.872;4.712;2023-02-10T03:35:12;2.40;99.90
8778;DHT22;4425;50.872;4.712;2023-02-10T03:37:41;2.30;99.90
8778;DHT22;4425;50.872;4.712;2023-02-10T03:40:09;2.30;99.90
8778;DHT22;4425;50.872;4.712;2023-02-10T03:42:36;2.30;99.90
8778;DHT22;4425;50.872;4.712;2023-02-10T03:45:04;2.30;99.90
8778;DHT22;4425;50.872;4.712;2023-02-10T03:47:32;2.20;99.90
8778;DHT22;4425;50.872;4.712;2023-02-10T03:50:00;2.30;99.90
8778;DHT22;4425;50.872;4.712;2023-02-10T03:52:27;2.20;99.90
8778;DHT22;4425;50.872;4.712;2023-02-10T03:54:56;2.20;99.90
8778;DHT22;4425;50.872;4.712;2023-02-10T03:57:22;2.20;99.90
8778;DHT22;4425;50.872;4.712;2023-02-10T03:59:50;2.20;99.90
8778;DHT22;4425;50.872;4.712;2023-02-10T04:02:17;2.20;99.90
8778;DHT22;4425;50.872;4.712;2023-02-10T04:04:45;2.10;99.90
8778;DHT22;4425;50.872;4.712;2023-02-10T04:07:13;2.00;99.90
8778;DHT22;4425;50.872;4.712;2023-02-10T04:09:40;2.00;99.90
8778;DHT22;4425;50.872;4.712;2023-02-10T04:12:09;2.00;99.90
8778;DHT22;4425;50.872;4.712;2023-02-10T04:14:36;2.00;99.90
8778;DHT22;4425;50.872;4.712;2023-02-10T04:17:03;2.10;99.90
8778;DHT22;4425;50.872;4.712;2023-02-10T04:19:31;1.90;99.90
8778;DHT22;4425;50.872;4.712;2023-02-10T04:21:58;1.90;99.90
8778;DHT22;4425;50.872;4.712;2023-02-10T04:24:25;1.90;99.90
8778;DHT22;4425;50.872;4.712;2023-02-10T04:26:52;1.90;99.90
8778;DHT22;4425;50.872;4.712;2023-02-10T04:29:21;1.90;99.90
8778;DHT22;4425;50.872;4.712;2023-02-10T04:31:48;1.90;99.90
8778;DHT22;4425;50.872;4.712;2023-02-10T04:34:15;2.00;99.90
8778;DHT22;4425;50.872;4.712;2023-02-10T04:36:42;1.90;99.90
8778;DHT22;4425;50.872;4.712;2023-02-10T04:39:09;1.90;99.90
8778;DHT22;4425;50.872;4.712;2023-02-10T04:41:36;1.80;99.90
8778;DHT22;4425;50.872;4.712;2023-02-10T04:44:04;1.80;99.90
8778;DHT22;4425;50.872;4.712;2023-02-10T04:46:33;1.80;99.90
8778;DHT22;4425;50.872;4.712;2023-02-10T04:49:00;1.80;99.90
8778;DHT22;4425;50.872;4.712;2023-02-10T04:51:26;1.90;99.90
8778;DHT22;4425;50.872;4.712;2023-02-10T04:53:53;1.70;99.90
8778;DHT22;4425;50.872;4.712;2023-02-10T04:56:20;1.70;99.90
8778;DHT22;4425;50.872;4.712;2023-02-10T04:58:48;1.70;99.90
8778;DHT22;4425;50.872;4.712;2023-02-10T05:01:17;1.70;99.90
8778;DHT22;4425;50.872;4.712;2023-02-10T05:03:45;1.70;99.90
8778;DHT22;4425;50.872;4.712;2023-02-10T05:06:14;1.60;99.90
8778;DHT22;4425;50.872;4.712;2023-02-10T05:08:42;1.60;99.90
8778;DHT22;4425;50.872;4.712;2023-02-10T05:11:10;1.70;99.90
8778;DHT22;4425;50.872;4.712;2023-02-10T05:13:38;1.50;99.90
8778;DHT22;4425;50.872;4.712;2023-02-10T05:16:06;1.50;99.90
8778;DHT22;4425;50.872;4.712;2023-02-10T05:18:33;1.50;99.90
8778;DHT22;4425;50.872;4.712;2023-02-10T05:21:03;1.50;99.90
8778;DHT22;4425;50.872;4.712;2023-02-10T05:23:30;1.50;99.90
8778;DHT22;4425;50.872;4.712;2023-02-10T05:25:57;1.50;99.90
8778;DHT22;4425;50.872;4.712;2023-02-10T05:28:24;1.50;99.90
8778;DHT22;4425;50.872;4.712;2023-02-10T05:30:51;1.50;99.90
8778;DHT22;4425;50.872;4.712;2023-02-10T05:33:18;1.40;99.90
8778;DHT22;4425;50.872;4.712;2023-02-10T05:35:49;1.40;99.90
8778;DHT22;4425;50.872;4.712;2023-02-10T05:38:17;1.40;99.90
8778;DHT22;4425;50.872;4.712;2023-02-10T05:40:44;1.40;99.90
8778;DHT22;4425;50.872;4.712;2023-02-10T05:43:11;1.60;99.90
8778;DHT22;4425;50.872;4.712;2023-02-10T05:45:38;1.40;99.90
8778;DHT22;4425;50.872;4.712;2023-02-10T05:48:07;1.40;99.90
8778;DHT22;4425;50.872;4.712;2023-02-10T05:50:34;1.30;99.90
8778;DHT22;4425;50.872;4.712;2023-02-10T05:53:01;1.30;99.90
8778;DHT22;4425;50.872;4.712;2023-02-10T05:55:30;1.30;99.90
8778;DHT22;4425;50.872;4.712;2023-02-10T05:57:57;1.50;99.90
8778;DHT22;4425;50.872;4.712;2023-02-10T06:00:24;1.30;99.90
8778;DHT22;4425;50.872;4.712;2023-02-10T06:02:51;1.40;99.90
8778;DHT22;4425;50.872;4.712;2023-02-10T06:05:18;1.40;99.90
8778;DHT22;4425;50.872;4.712;2023-02-10T06:07:45;1.50;99.90
8778;DHT22;4425;50.872;4.712;2023-02-10T06:10:12;1.40;99.90
8778;DHT22;4425;50.872;4.712;2023-02-10T06:12:42;1.40;99.90
8778;DHT22;4425;50.872;4.712;2023-02-10T06:15:09;1.40;99.90
8778;DHT22;4425;50.872;4.712;2023-02-10T06:17:36;1.30;99.90
8778;DHT22;4425;50.872;4.712;2023-02-10T06:20:04;1.30;99.90
8778;DHT22;4425;50.872;4.712;2023-02-10T06:22:31;1.30;99.90
8778;DHT22;4425;50.872;4.712;2023-02-10T06:24:58;1.30;99.90
8778;DHT22;4425;50.872;4.712;2023-02-10T06:27:25;1.30;99.90
8778;DHT22;4425;50.872;4.712;2023-02-10T06:29:55;1.30;99.90
8778;DHT22;4425;50.872;4.712;2023-02-10T06:32:22;1.30;99.90
8778;DHT22;4425;50.872;4.712;2023-02-10T06:34:49;1.20;99.90
8778;DHT22;4425;50.872;4.712;2023-02-10T06:37:16;1.30;99.90
8778;DHT22;4425;50.872;4.712;2023-02-10T06:39:44;1.30;99.90
8778;DHT22;4425;50.872;4.712;2023-02-10T06:42:12;1.30;99.90
8778;DHT22;4425;50.872;4.712;2023-02-10T06:44:39;1.20;99.90
8778;DHT22;4425;50.872;4.712;2023-02-10T06:47:08;1.30;99.90
8778;DHT22;4425;50.872;4.712;2023-02-10T06:49:35;1.30;99.90
8778;DHT22;4425;50.872;4.712;2023-02-10T06:52:02;1.30;99.90
8778;DHT22;4425;50.872;4.712;2023-02-10T06:54:29;1.40;99.90
8778;DHT22;4425;50.872;4.712;2023-02-10T06:56:56;1.40;99.90
8778;DHT22;4425;50.872;4.712;2023-02-10T06:59:25;1.40;99.90
8778;DHT22;4425;50.872;4.712;2023-02-10T07:01:52;1.50;99.90
8778;DHT22;4425;50.872;4.712;2023-02-10T07:04:31;1.50;99.90
8778;DHT22;4425;50.872;4.712;2023-02-10T07:06:59;1.50;99.90
8778;DHT22;4425;50.872;4.712;2023-02-10T07:09:26;1.50;99.90
8778;DHT22;4425;50.872;4.712;2023-02-10T07:11:54;1.50;99.90
8778;DHT22;4425;50.872;4.712;2023-02-10T07:14:21;1.50;99.90
8778;DHT22;4425;50.872;4.712;2023-02-10T07:16:49;1.50;99.90
8778;DHT22;4425;50.872;4.712;2023-02-10T07:19:17;1.50;99.90
8778;DHT22;4425;50.872;4.712;2023-02-10T07:21:45;1.50;99.90
8778;DHT22;4425;50.872;4.712;2023-02-10T07:24:12;1.60;99.90
8778;DHT22;4425;50.872;4.712;2023-02-10T07:26:40;1.60;99.90
8778;DHT22;4425;50.872;4.712;2023-02-10T07:29:07;1.60;99.90
8778;DHT22;4425;50.872;4.712;2023-02-10T07:31:34;1.60;99.90
8778;DHT22;4425;50.872;4.712;2023-02-10T07:34:02;1.70;99.90
8778;DHT22;4425;50.872;4.712;2023-02-10T07:36:29;1.70;99.90
8778;DHT22;4425;50.872;4.712;2023-02-10T07:38:57;1.70;99.90
8778;DHT22;4425;50.872;4.712;2023-02-10T07:41:24;1.80;99.90
8778;DHT22;4425;50.872;4.712;2023-02-10T07:43:51;1.80;99.90
8778;DHT22;4425;50.872;4.712;2023-02-10T07:46:20;1.80;99.90
8778;DHT22;4425;50.872;4.712;2023-02-10T07:48:47;1.90;99.90
8778;DHT22;4425;50.872;4.712;2023-02-10T07:51:14;2.10;99.90
8778;DHT22;4425;50.872;4.712;2023-02-10T07:53:41;2.00;99.90
8778;DHT22;4425;50.872;4.712;2023-02-10T07:56:09;2.30;99.90
8778;DHT22;4425;50.872;4.712;2023-02-10T07:58:37;2.40;99.90
8778;DHT22;4425;50.872;4.712;2023-02-10T08:01:08;2.50;99.90
8778;DHT22;4425;50.872;4.712;2023-02-10T08:03:36;2.70;99.90
8778;DHT22;4425;50.872;4.712;2023-02-10T08:06:03;3.10;99.90
8778;DHT22;4425;50.872;4.712;2023-02-10T08:08:32;3.60;99.90
8778;DHT22;4425;50.872;4.712;2023-02-10T08:11:02;4.00;99.90
8778;DHT22;4425;50.872;4.712;2023-02-10T08:13:31;4.30;99.90
8778;DHT22;4425;50.872;4.712;2023-02-10T08:15:58;4.30;99.90
8778;DHT22;4425;50.872;4.712;2023-02-10T08:18:25;4.20;99.90
8778;DHT22;4425;50.872;4.712;2023-02-10T08:20:52;4.00;99.90
8778;DHT22;4425;50.872;4.712;2023-02-10T08:23:19;3.80;99.90
8778;DHT22;4425;50.872;4.712;2023-02-10T08:25:47;3.60;99.90
8778;DHT22;4425;50.872;4.712;2023-02-10T08:28:17;3.40;99.90
8778;DHT22;4425;50.872;4.712;2023-02-10T08:30:46;3.30;99.90
8778;DHT22;4425;50.872;4.712;2023-02-10T08:33:13;3.30;99.90
8778;DHT22;4425;50.872;4.712;2023-02-10T08:35:41;3.30;99.90
8778;DHT22;4425;50.872;4.712;2023-02-10T08:38:08;3.20;99.90
8778;DHT22;4425;50.872;4.712;2023-02-10T08:40:36;3.20;99.90
8778;DHT22;4425;50.872;4.712;2023-02-10T08:43:03;3.10;99.90
8778;DHT22;4425;50.872;4.712;2023-02-10T08:45:30;3.00;99.90
8778;DHT22;4425;50.872;4.712;2023-02-10T08:47:59;2.90;99.90
8778;DHT22;4425;50.872;4.712;2023-02-10T08:50:26;2.90;99.90
8778;DHT22;4425;50.872;4.712;2023-02-10T08:52:53;3.00;99.90
8778;DHT22;4425;50.872;4.712;2023-02-10T08:55:20;3.10;99.90
8778;DHT22;4425;50.872;4.712;2023-02-10T08:57:47;3.30;99.90
8778;DHT22;4425;50.872;4.712;2023-02-10T09:00:16;3.60;99.90
8778;DHT22;4425;50.872;4.712;2023-02-10T09:02:43;3.90;99.90
8778;DHT22;4425;50.872;4.712;2023-02-10T09:05:11;4.30;99.90
8778;DHT22;4425;50.872;4.712;2023-02-10T09:07:40;4.20;99.90
8778;DHT22;4425;50.872;4.712;2023-02-10T09:10:09;4.40;99.90
8778;DHT22;4425;50.872;4.712;2023-02-10T09:12:36;4.50;99.90
8778;DHT22;4425;50.872;4.712;2023-02-10T09:15:04;4.60;99.90
8778;DHT22;4425;50.872;4.712;2023-02-10T09:17:31;4.60;99.90
8778;DHT22;4425;50.872;4.712;2023-02-10T09:19:58;4.60;99.90
8778;DHT22;4425;50.872;4.712;2023-02-10T09:22:26;4.60;99.90
8778;DHT22;4425;50.872;4.712;2023-02-10T09:24:53;4.50;99.90
8778;DHT22;4425;50.872;4.712;2023-02-10T09:27:20;4.60;99.90
8778;DHT22;4425;50.872;4.712;2023-02-10T09:29:48;4.70;99.90
8778;DHT22;4425;50.872;4.712;2023-02-10T09:32:15;4.80;99.90
8778;DHT22;4425;50.872;4.712;2023-02-10T09:34:44;4.80;99.90
8778;DHT22;4425;50.872;4.712;2023-02-10T09:37:11;5.00;99.90
8778;DHT22;4425;50.872;4.712;2023-02-10T09:39:40;5.20;99.90
8778;DHT22;4425;50.872;4.712;2023-02-10T09:42:11;5.30;99.90
8778;DHT22;4425;50.872;4.712;2023-02-10T09:44:45;5.40;99.90
8778;DHT22;4425;50.872;4.712;2023-02-10T09:47:37;5.30;99.90
8778;DHT22;4425;50.872;4.712;2023-02-10T09:50:30;5.30;99.90
8778;DHT22;4425;50.872;4.712;2023-02-10T09:53:07;5.30;99.90
8778;DHT22;4425;50.872;4.712;2023-02-10T09:55:39;5.20;99.90
8778;DHT22;4425;50.872;4.712;2023-02-10T09:58:14;5.30;99.90
8778;DHT22;4425;50.872;4.712;2023-02-10T10:00:44;5.40;99.90
8778;DHT22;4425;50.872;4.712;2023-02-10T10:03:13;5.40;99.90
8778;DHT22;4425;50.872;4.712;2023-02-10T10:05:47;5.40;99.90
8778;DHT22;4425;50.872;4.712;2023-02-10T10:08:24;5.50;99.90
8778;DHT22;4425;50.872;4.712;2023-02-10T10:10:58;5.60;99.90
8778;DHT22;4425;50.872;4.712;2023-02-10T10:13:28;5.70;99.90
8778;DHT22;4425;50.872;4.712;2023-02-10T10:16:17;5.80;99.90
8778;DHT22;4425;50.872;4.712;2023-02-10T10:18:56;5.90;99.90
8778;DHT22;4425;50.872;4.712;2023-02-10T10:21:28;6.00;99.90
8778;DHT22;4425;50.872;4.712;2023-02-10T10:24:10;6.10;99.90
8778;DHT22;4425;50.872;4.712;2023-02-10T10:26:48;6.10;99.90
8778;DHT22;4425;50.872;4.712;2023-02-10T10:29:25;6.00;99.90
8778;DHT22;4425;50.872;4.712;2023-02-10T10:31:57;6.10;99.90
8778;DHT22;4425;50.872;4.712;2023-02-10T10:34:36;6.00;99.90
8778;DHT22;4425;50.872;4.712;2023-02-10T10:37:12;6.00;99.90
8778;DHT22;4425;50.872;4.712;2023-02-10T10:39:42;6.10;99.90
8778;DHT22;4425;50.872;4.712;2023-02-10T10:42:18;6.20;99.90
8778;DHT22;4425;50.872;4.712;2023-02-10T10:44:48;6.40;99.90
8778;DHT22;4425;50.872;4.712;2023-02-10T10:47:18;6.30;99.90
8778;DHT22;4425;50.872;4.712;2023-02-10T10:49:46;6.20;99.90
8778;DHT22;4425;50.872;4.712;2023-02-10T10:52:25;6.10;99.90
8778;DHT22;4425;50.872;4.712;2023-02-10T10:54:53;6.30;99.90
8778;DHT22;4425;50.872;4.712;2023-02-10T10:57:23;6.30;99.90
8778;DHT22;4425;50.872;4.712;2023-02-10T10:59:53;6.40;99.90
8778;DHT22;4425;50.872;4.712;2023-02-10T11:02:22;6.50;99.90
8778;DHT22;4425;50.872;4.712;2023-02-10T11:05:00;6.60;99.90
8778;DHT22;4425;50.872;4.712;2023-02-10T11:07:29;6.80;99.90
8778;DHT22;4425;50.872;4.712;2023-02-10T11:09:58;6.90;99.90
8778;DHT22;4425;50.872;4.712;2023-02-10T11:12:32;6.90;99.90
8778;DHT22;4425;50.872;4.712;2023-02-10T11:15:00;6.80;99.90
8778;DHT22;4425;50.872;4.712;2023-02-10T11:17:32;6.90;99.90
8778;DHT22;4425;50.872;4.712;2023-02-10T11:20:03;7.00;99.90
8778;DHT22;4425;50.872;4.712;2023-02-10T11:22:30;7.10;99.90
8778;DHT22;4425;50.872;4.712;2023-02-10T11:25:00;7.10;99.90
8778;DHT22;4425;50.872;4.712;2023-02-10T11:27:33;7.30;99.90
8778;DHT22;4425;50.872;4.712;2023-02-10T11:30:01;7.20;99.90
8778;DHT22;4425;50.872;4.712;2023-02-10T11:32:30;7.30;99.90
8778;DHT22;4425;50.872;4.712;2023-02-10T11:35:00;7.30;99.90
8778;DHT22;4425;50.872;4.712;2023-02-10T11:37:30;7.20;99.90
8778;DHT22;4425;50.872;4.712;2023-02-10T11:40:02;7.10;99.90
8778;DHT22;4425;50.872;4.712;2023-02-10T11:42:33;7.10;99.90
8778;DHT22;4425;50.872;4.712;2023-02-10T11:45:11;7.10;99.90
8778;DHT22;4425;50.872;4.712;2023-02-10T11:47:42;7.10;99.90
8778;DHT22;4425;50.872;4.712;2023-02-10T11:50:19;7.10;99.90
8778;DHT22;4425;50.872;4.712;2023-02-10T11:52:47;7.30;99.90
8778;DHT22;4425;50.872;4.712;2023-02-10T11:55:14;7.40;99.90
8778;DHT22;4425;50.872;4.712;2023-02-10T11:57:49;7.50;99.90
8778;DHT22;4425;50.872;4.712;2023-02-10T12:00:40;7.60;99.90
8778;DHT22;4425;50.872;4.712;2023-02-10T12:03:34;7.80;99.90
8778;DHT22;4425;50.872;4.712;2023-02-10T12:06:05;7.80;99.90
8778;DHT22;4425;50.872;4.712;2023-02-10T12:08:46;7.90;99.90
8778;DHT22;4425;50.872;4.712;2023-02-10T12:11:25;7.90;99.90
8778;DHT22;4425;50.872;4.712;2023-02-10T12:14:04;7.90;99.90
8778;DHT22;4425;50.872;4.712;2023-02-10T12:16:46;7.90;99.90
8778;DHT22;4425;50.872;4.712;2023-02-10T12:19:20;8.00;99.90
8778;DHT22;4425;50.872;4.712;2023-02-10T12:22:02;7.90;99.90
8778;DHT22;4425;50.872;4.712;2023-02-10T12:24:46;8.00;99.90
8778;DHT22;4425;50.872;4.712;2023-02-10T12:27:21;8.10;99.90
8778;DHT22;4425;50.872;4.712;2023-02-10T12:29:58;8.20;99.90
8778;DHT22;4425;50.872;4.712;2023-02-10T12:32:39;8.20;99.90
8778;DHT22;4425;50.872;4.712;2023-02-10T12:35:25;8.30;99.90
8778;DHT22;4425;50.872;4.712;2023-02-10T12:38:03;8.30;99.90
8778;DHT22;4425;50.872;4.712;2023-02-10T12:40:47;8.40;99.90
8778;DHT22;4425;50.872;4.712;2023-02-10T12:43:34;8.40;99.90
8778;DHT22;4425;50.872;4.712;2023-02-10T12:46:14;8.50;99.90
8778;DHT22;4425;50.872;4.712;2023-02-10T12:48:49;8.50;99.90
8778;DHT22;4425;50.872;4.712;2023-02-10T12:51:32;8.50;99.90
8778;DHT22;4425;50.872;4.712;2023-02-10T12:54:07;8.50;99.90
8778;DHT22;4425;50.872;4.712;2023-02-10T12:56:39;8.50;99.90
8778;DHT22;4425;50.872;4.712;2023-02-10T12:59:15;8.50;99.90
8778;DHT22;4425;50.872;4.712;2023-02-10T13:01:47;8.50;99.90
8778;DHT22;4425;50.872;4.712;2023-02-10T13:04:18;8.40;99.90
8778;DHT22;4425;50.872;4.712;2023-02-10T13:06:52;8.40;99.90
8778;DHT22;4425;50.872;4.712;2023-02-10T13:09:30;8.30;99.90
8778;DHT22;4425;50.872;4.712;2023-02-10T13:12:14;8.40;99.90
8778;DHT22;4425;50.872;4.712;2023-02-10T13:14:43;8.50;99.90
8778;DHT22;4425;50.872;4.712;2023-02-10T13:17:13;8.60;99.90
8778;DHT22;4425;50.872;4.712;2023-02-10T13:19:49;8.80;99.90
8778;DHT22;4425;50.872;4.712;2023-02-10T13:22:19;8.90;99.90
8778;DHT22;4425;50.872;4.712;2023-02-10T13:24:58;8.90;99.90
8778;DHT22;4425;50.872;4.712;2023-02-10T13:27:34;8.90;99.90
8778;DHT22;4425;50.872;4.712;2023-02-10T13:30:22;8.90;99.90
8778;DHT22;4425;50.872;4.712;2023-02-10T13:33:01;8.90;99.90
8778;DHT22;4425;50.872;4.712;2023-02-10T13:35:32;8.80;99.90
8778;DHT22;4425;50.872;4.712;2023-02-10T13:38:06;8.60;99.90
8778;DHT22;4425;50.872;4.712;2023-02-10T13:40:44;8.60;99.90
8778;DHT22;4425;50.872;4.712;2023-02-10T13:43:25;8.60;99.90
8778;DHT22;4425;50.872;4.712;2023-02-10T13:45:54;8.50;99.90
8778;DHT22;4425;50.872;4.712;2023-02-10T13:48:26;8.50;99.90
8778;DHT22;4425;50.872;4.712;2023-02-10T13:50:57;8.50;99.90
8778;DHT22;4425;50.872;4.712;2023-02-10T13:53:37;8.40;99.90
8778;DHT22;4425;50.872;4.712;2023-02-10T13:56:13;8.40;99.90
8778;DHT22;4425;50.872;4.712;2023-02-10T13:58:50;8.40;99.90
8778;DHT22;4425;50.872;4.712;2023-02-10T14:01:32;8.40;99.90
8778;DHT22;4425;50.872;4.712;2023-02-10T14:04:12;8.30;99.90
8778;DHT22;4425;50.872;4.712;2023-02-10T14:06:55;8.30;99.90
8778;DHT22;4425;50.872;4.712;2023-02-10T14:09:33;8.20;99.90
8778;DHT22;4425;50.872;4.712;2023-02-10T14:12:04;8.30;99.90
8778;DHT22;4425;50.872;4.712;2023-02-10T14:14:33;8.30;99.90
8778;DHT22;4425;50.872;4.712;2023-02-10T14:17:05;8.40;99.90
8778;DHT22;4425;50.872;4.712;2023-02-10T14:19:37;8.50;99.90
8778;DHT22;4425;50.872;4.712;2023-02-10T14:22:06;8.40;99.90
8778;DHT22;4425;50.872;4.712;2023-02-10T14:24:36;8.40;99.90
8778;DHT22;4425;50.872;4.712;2023-02-10T14:27:12;8.30;99.90
8778;DHT22;4425;50.872;4.712;2023-02-10T14:29:46;8.20;99.90
8778;DHT22;4425;50.872;4.712;2023-02-10T14:32:16;8.30;99.90
8778;DHT22;4425;50.872;4.712;2023-02-10T14:34:55;8.30;99.90
8778;DHT22;4425;50.872;4.712;2023-02-10T14:37:24;8.30;99.90
8778;DHT22;4425;50.872;4.712;2023-02-10T14:39:54;8.30;99.90
8778;DHT22;4425;50.872;4.712;2023-02-10T14:42:25;8.30;99.90
8778;DHT22;4425;50.872;4.712;2023-02-10T14:44:54;8.20;99.90
8778;DHT22;4425;50.872;4.712;2023-02-10T14:47:26;8.20;99.90
8778;DHT22;4425;50.872;4.712;2023-02-10T14:49:57;8.30;99.90
8778;DHT22;4425;50.872;4.712;2023-02-10T14:52:27;8.20;99.90
8778;DHT22;4425;50.872;4.712;2023-02-10T14:54:55;8.20;99.90
8778;DHT22;4425;50.872;4.712;2023-02-10T14:57:25;8.10;99.90
8778;DHT22;4425;50.872;4.712;2023-02-10T14:59:53;8.00;99.90
8778;DHT22;4425;50.872;4.712;2023-02-10T15:02:23;8.10;99.90
8778;DHT22;4425;50.872;4.712;2023-02-10T15:04:53;8.10;99.90
8778;DHT22;4425;50.872;4.712;2023-02-10T15:07:26;7.90;99.90
8778;DHT22;4425;50.872;4.712;2023-02-10T15:10:01;7.90;99.90
8778;DHT22;4425;50.872;4.712;2023-02-10T15:12:31;7.90;99.90
8778;DHT22;4425;50.872;4.712;2023-02-10T15:15:03;7.80;99.90
8778;DHT22;4425;50.872;4.712;2023-02-10T15:17:36;7.80;99.90
8778;DHT22;4425;50.872;4.712;2023-02-10T15:20:21;7.80;99.90
8778;DHT22;4425;50.872;4.712;2023-02-10T15:23:04;7.90;99.90
8778;DHT22;4425;50.872;4.712;2023-02-10T15:25:33;7.90;99.90
8778;DHT22;4425;50.872;4.712;2023-02-10T15:28:19;7.80;99.90
8778;DHT22;4425;50.872;4.712;2023-02-10T15:30:57;7.70;99.90
8778;DHT22;4425;50.872;4.712;2023-02-10T15:33:30;7.70;99.90
8778;DHT22;4425;50.872;4.712;2023-02-10T15:39:02;7.60;99.90
8778;DHT22;4425;50.872;4.712;2023-02-10T15:41:39;7.60;99.90
8778;DHT22;4425;50.872;4.712;2023-02-10T15:44:31;7.60;99.90
8778;DHT22;4425;50.872;4.712;2023-02-10T15:47:22;7.50;99.90
8778;DHT22;4425;50.872;4.712;2023-02-10T15:49:56;7.40;99.90
8778;DHT22;4425;50.872;4.712;2023-02-10T15:52:26;7.30;99.90
8778;DHT22;4425;50.872;4.712;2023-02-10T15:54:59;7.30;99.90
8778;DHT22;4425;50.872;4.712;2023-02-10T15:57:26;7.30;99.90
8778;DHT22;4425;50.872;4.712;2023-02-10T15:59:53;7.30;99.90
8778;DHT22;4425;50.872;4.712;2023-02-10T16:02:22;7.30;99.90
8778;DHT22;4425;50.872;4.712;2023-02-10T16:04:54;7.10;99.90
8778;DHT22;4425;50.872;4.712;2023-02-10T16:07:32;7.20;99.90
8778;DHT22;4425;50.872;4.712;2023-02-10T16:10:02;7.20;99.90
8778;DHT22;4425;50.872;4.712;2023-02-10T16:12:37;7.20;99.90
8778;DHT22;4425;50.872;4.712;2023-02-10T16:15:05;7.10;99.90
8778;DHT22;4425;50.872;4.712;2023-02-10T16:17:38;7.10;99.90
8778;DHT22;4425;50.872;4.712;2023-02-10T16:20:14;7.00;99.90
8778;DHT22;4425;50.872;4.712;2023-02-10T16:22:41;7.00;99.90
8778;DHT22;4425;50.872;4.712;2023-02-10T16:25:15;6.90;99.90
8778;DHT22;4425;50.872;4.712;2023-02-10T16:27:43;6.80;99.90
8778;DHT22;4425;50.872;4.712;2023-02-10T16:30:17;6.80;99.90
8778;DHT22;4425;50.872;4.712;2023-02-10T16:32:51;6.70;99.90
8778;DHT22;4425;50.872;4.712;2023-02-10T16:35:20;6.70;99.90
8778;DHT22;4425;50.872;4.712;2023-02-10T16:37:50;6.80;99.90
8778;DHT22;4425;50.872;4.712;2023-02-10T16:40:33;6.50;99.90
8778;DHT22;4425;50.872;4.712;2023-02-10T16:43:04;6.40;99.90
8778;DHT22;4425;50.872;4.712;2023-02-10T16:45:34;6.40;99.90
8778;DHT22;4425;50.872;4.712;2023-02-10T16:48:05;6.40;99.90
8778;DHT22;4425;50.872;4.712;2023-02-10T16:50:36;6.40;99.90